createdAt,value
2019-03-25T00:00:26.215Z,40.50
2019-03-25T00:01:26.202Z,40.49
2019-03-25T00:02:26.228Z,40.46
2019-03-25T00:03:26.225Z,40.52
2019-03-25T00:04:26.213Z,40.51
2019-03-25T00:05:26.206Z,40.49
2019-03-25T00:06:26.206Z,40.68
2019-03-25T00:07:26.186Z,40.46
2019-03-25T00:08:26.186Z,40.52
2019-03-25T00:09:26.172Z,40.54
2019-03-25T00:10:26.168Z,40.63
2019-03-25T00:11:26.160Z,40.58
2019-03-25T00:12:26.143Z,40.49
2019-03-25T00:13:26.146Z,40.54
2019-03-25T00:14:26.158Z,40.55
2019-03-25T00:15:26.125Z,40.55
2019-03-25T00:16:26.126Z,40.66
2019-03-25T00:17:26.127Z,40.51
2019-03-25T00:18:26.104Z,40.49
2019-03-25T00:19:26.091Z,40.67
2019-03-25T00:20:26.085Z,40.60
2019-03-25T00:21:26.098Z,40.66
2019-03-25T00:22:26.073Z,40.54
2019-03-25T00:23:26.087Z,40.49
2019-03-25T00:24:26.063Z,40.48
2019-03-25T00:25:26.063Z,40.56
2019-03-25T00:26:26.066Z,40.59
2019-03-25T00:27:26.050Z,40.66
2019-03-25T00:28:26.038Z,40.56
2019-03-25T00:29:26.043Z,40.60
2019-03-25T00:30:26.029Z,40.63
2019-03-25T00:31:26.021Z,40.59
2019-03-25T00:32:26.010Z,40.61
2019-03-25T00:33:26.009Z,40.55
2019-03-25T00:34:26.001Z,40.53
2019-03-25T00:35:25.990Z,40.64
2019-03-25T00:36:26.016Z,40.58
2019-03-25T00:37:25.980Z,40.68
2019-03-25T00:38:25.987Z,40.53
2019-03-25T00:39:25.956Z,40.61
2019-03-25T00:40:25.953Z,40.60
2019-03-25T00:41:25.942Z,40.56
2019-03-25T00:42:25.953Z,40.77
2019-03-25T00:43:25.927Z,40.61
2019-03-25T00:44:25.917Z,40.59
2019-03-25T00:45:25.916Z,40.77
2019-03-25T00:46:25.915Z,40.63
2019-03-25T00:47:25.914Z,40.63
2019-03-25T00:48:25.902Z,40.63
2019-03-25T00:49:25.940Z,40.63
2019-03-25T00:50:25.888Z,40.62
2019-03-25T00:51:25.864Z,40.67
2019-03-25T00:52:25.858Z,40.56
2019-03-25T00:53:25.861Z,40.67
2019-03-25T00:54:25.846Z,40.69
2019-03-25T00:55:25.844Z,40.66
2019-03-25T00:56:25.838Z,40.62
2019-03-25T00:57:25.813Z,40.58
2019-03-25T00:58:25.818Z,40.59
2019-03-25T00:59:25.803Z,40.60
2019-03-25T01:00:25.794Z,40.68
2019-03-25T01:01:25.788Z,40.69
2019-03-25T01:02:25.780Z,40.76
2019-03-25T01:03:25.808Z,40.62
2019-03-25T01:04:25.760Z,40.57
2019-03-25T01:05:25.778Z,40.59
2019-03-25T01:06:25.783Z,40.62
2019-03-25T01:07:25.767Z,40.78
2019-03-25T01:08:25.753Z,40.79
2019-03-25T01:09:25.757Z,40.76
2019-03-25T01:10:25.746Z,40.75
2019-03-25T01:11:25.734Z,40.78
2019-03-25T01:12:25.725Z,40.83
2019-03-25T01:13:25.726Z,40.80
2019-03-25T01:14:25.715Z,40.79
2019-03-25T01:15:25.702Z,40.82
2019-03-25T01:16:25.691Z,41.93
2019-03-25T01:17:25.704Z,40.76
2019-03-25T01:18:26.695Z,40.80
2019-03-25T01:19:25.687Z,40.78
2019-03-25T01:20:25.768Z,40.72
2019-03-25T01:21:25.668Z,40.86
2019-03-25T01:22:25.668Z,41.06
2019-03-25T01:23:25.662Z,40.89
2019-03-25T01:24:25.643Z,40.85
2019-03-25T01:25:25.651Z,40.91
2019-03-25T01:26:25.634Z,40.86
2019-03-25T01:27:25.642Z,40.89
2019-03-25T01:28:25.619Z,40.96
2019-03-25T01:29:25.613Z,40.90
2019-03-25T01:30:25.614Z,40.84
2019-03-25T01:31:25.610Z,40.83
2019-03-25T01:32:25.594Z,40.82
2019-03-25T01:33:25.588Z,40.85
2019-03-25T01:34:25.581Z,40.89
2019-03-25T01:35:25.586Z,40.94
2019-03-25T01:36:25.555Z,40.89
2019-03-25T01:37:25.552Z,40.90
2019-03-25T01:38:25.544Z,40.89
2019-03-25T01:39:25.536Z,41.00
2019-03-25T01:40:25.606Z,40.88
2019-03-25T01:41:25.540Z,40.91
2019-03-25T01:42:25.517Z,40.86
2019-03-25T01:43:25.512Z,40.86
2019-03-25T01:44:25.524Z,40.88
2019-03-25T01:45:25.498Z,40.85
2019-03-25T01:46:25.496Z,40.91
2019-03-25T01:47:25.484Z,41.05
2019-03-25T01:48:25.468Z,40.89
2019-03-25T01:49:25.467Z,41.03
2019-03-25T01:50:25.456Z,40.83
2019-03-25T01:51:25.451Z,40.91
2019-03-25T01:52:25.442Z,40.87
2019-03-25T01:53:25.510Z,40.87
2019-03-25T01:54:25.434Z,40.84
2019-03-25T01:55:25.431Z,40.88
2019-03-25T01:56:25.412Z,40.93
2019-03-25T01:57:25.413Z,40.97
2019-03-25T01:58:25.401Z,41.48
2019-03-25T01:59:25.397Z,40.73
2019-03-25T02:00:25.390Z,40.65
2019-03-25T02:01:25.385Z,40.66
2019-03-25T02:02:25.380Z,40.67
2019-03-25T02:03:25.366Z,40.62
2019-03-25T02:04:25.351Z,40.63
2019-03-25T02:05:25.355Z,40.71
2019-03-25T02:06:25.344Z,40.53
2019-03-25T02:07:25.338Z,40.67
2019-03-25T02:08:25.360Z,40.66
2019-03-25T02:09:25.344Z,40.69
2019-03-25T02:10:25.325Z,40.64
2019-03-25T02:11:25.349Z,40.60
2019-03-25T02:12:25.313Z,40.58
2019-03-25T02:13:25.313Z,40.58
2019-03-25T02:14:25.302Z,40.55
2019-03-25T02:15:25.298Z,40.57
2019-03-25T02:16:25.303Z,40.59
2019-03-25T02:17:25.279Z,40.59
2019-03-25T02:18:25.277Z,40.56
2019-03-25T02:19:25.286Z,40.65
2019-03-25T02:20:26.680Z,40.56
2019-03-25T02:21:26.262Z,40.60
2019-03-25T02:22:25.312Z,40.72
2019-03-25T02:23:25.254Z,40.60
2019-03-25T02:24:25.296Z,40.61
2019-03-25T02:25:26.000Z,40.62
2019-03-25T02:26:25.230Z,41.35
2019-03-25T02:27:25.211Z,40.61
2019-03-25T02:28:25.234Z,40.59
2019-03-25T02:29:25.254Z,40.64
2019-03-25T02:30:25.211Z,40.66
2019-03-25T02:31:25.246Z,40.68
2019-03-25T02:32:25.199Z,40.65
2019-03-25T02:33:25.187Z,40.59
2019-03-25T02:34:25.190Z,40.58
2019-03-25T02:35:25.194Z,40.54
2019-03-25T02:36:25.179Z,40.62
2019-03-25T02:37:25.175Z,40.64
2019-03-25T02:38:25.157Z,40.57
2019-03-25T02:39:25.162Z,40.92
2019-03-25T02:40:25.172Z,40.54
2019-03-25T02:41:25.135Z,40.62
2019-03-25T02:42:25.130Z,40.67
2019-03-25T02:43:25.126Z,40.65
2019-03-25T02:44:25.133Z,40.62
2019-03-25T02:45:25.119Z,40.57
2019-03-25T02:46:25.103Z,40.54
2019-03-25T02:47:25.084Z,41.09
2019-03-25T02:48:25.101Z,41.00
2019-03-25T02:49:25.085Z,40.62
2019-03-25T02:50:25.076Z,40.59
2019-03-25T02:51:25.070Z,40.55
2019-03-25T02:52:25.070Z,40.66
2019-03-25T02:53:25.062Z,40.60
2019-03-25T02:54:26.055Z,40.73
2019-03-25T02:55:40.129Z,40.66
2019-03-25T02:56:26.035Z,40.57
2019-03-25T02:57:25.021Z,40.64
2019-03-25T02:58:25.012Z,40.53
2019-03-25T02:59:25.021Z,40.58
2019-03-25T03:00:25.009Z,40.62
2019-03-25T03:01:25.042Z,40.80
2019-03-25T03:02:25.020Z,40.73
2019-03-25T03:03:25.006Z,40.55
2019-03-25T03:04:25.000Z,40.69
2019-03-25T03:05:24.991Z,40.58
2019-03-25T03:06:24.984Z,40.64
2019-03-25T03:07:25.005Z,40.83
2019-03-25T03:08:24.989Z,40.90
2019-03-25T03:09:24.963Z,40.76
2019-03-25T03:10:24.947Z,40.71
2019-03-25T03:11:24.944Z,40.77
2019-03-25T03:12:24.955Z,41.14
2019-03-25T03:13:24.943Z,40.72
2019-03-25T03:14:24.919Z,40.65
2019-03-25T03:15:24.924Z,40.70
2019-03-25T03:16:24.905Z,40.68
2019-03-25T03:17:24.915Z,40.63
2019-03-25T03:18:24.905Z,40.82
2019-03-25T03:19:24.900Z,40.75
2019-03-25T03:20:24.877Z,40.74
2019-03-25T03:21:24.864Z,40.64
2019-03-25T03:22:24.873Z,40.75
2019-03-25T03:23:24.883Z,40.61
2019-03-25T03:24:24.857Z,40.65
2019-03-25T03:25:24.850Z,40.78
2019-03-25T03:26:24.842Z,40.59
2019-03-25T03:27:24.853Z,40.66
2019-03-25T03:28:24.842Z,40.66
2019-03-25T03:29:24.836Z,40.67
2019-03-25T03:30:24.825Z,40.63
2019-03-25T03:31:24.869Z,40.68
2019-03-25T03:32:24.842Z,40.77
2019-03-25T03:33:24.822Z,40.82
2019-03-25T03:34:24.813Z,40.72
2019-03-25T03:35:24.799Z,40.77
2019-03-25T03:36:24.786Z,40.77
2019-03-25T03:37:24.785Z,40.70
2019-03-25T03:38:24.776Z,40.68
2019-03-25T03:39:24.780Z,40.93
2019-03-25T03:40:24.781Z,41.18
2019-03-25T03:41:24.781Z,40.67
2019-03-25T03:42:24.752Z,40.95
2019-03-25T03:43:24.731Z,40.97
2019-03-25T03:44:24.743Z,41.07
2019-03-25T03:45:24.725Z,40.81
2019-03-25T03:46:24.714Z,40.73
2019-03-25T03:47:24.711Z,40.53
2019-03-25T03:48:24.692Z,40.50
2019-03-25T03:49:24.706Z,40.46
2019-03-25T03:50:24.695Z,40.57
2019-03-25T03:51:24.686Z,40.38
2019-03-25T03:52:24.687Z,40.43
2019-03-25T03:53:24.691Z,40.26
2019-03-25T03:54:24.684Z,40.23
2019-03-25T03:55:24.697Z,40.18
2019-03-25T03:56:24.686Z,40.25
2019-03-25T03:57:24.731Z,40.20
2019-03-25T03:58:24.658Z,40.11
2019-03-25T03:59:24.655Z,40.33
2019-03-25T04:00:24.654Z,40.44
2019-03-25T04:01:24.645Z,40.32
2019-03-25T04:02:24.633Z,40.39
2019-03-25T04:03:24.623Z,40.39
2019-03-25T04:04:24.624Z,40.39
2019-03-25T04:05:24.608Z,40.19
2019-03-25T04:06:24.598Z,40.24
2019-03-25T04:07:24.586Z,40.28
2019-03-25T04:08:24.597Z,40.34
2019-03-25T04:09:24.577Z,40.11
2019-03-25T04:10:24.570Z,40.06
2019-03-25T04:11:24.564Z,40.03
2019-03-25T04:12:24.545Z,40.14
2019-03-25T04:13:24.543Z,40.42
2019-03-25T04:14:24.533Z,40.07
2019-03-25T04:15:24.520Z,40.18
2019-03-25T04:16:24.527Z,40.57
2019-03-25T04:17:24.509Z,40.15
2019-03-25T04:18:24.531Z,40.10
2019-03-25T04:19:24.501Z,40.18
2019-03-25T04:20:24.486Z,40.09
2019-03-25T04:21:24.478Z,40.48
2019-03-25T04:22:24.481Z,40.10
2019-03-25T04:23:24.463Z,40.22
2019-03-25T04:24:24.477Z,40.16
2019-03-25T04:25:24.485Z,40.17
2019-03-25T04:26:28.831Z,40.33
2019-03-25T04:27:26.471Z,40.16
2019-03-25T04:28:24.455Z,40.12
2019-03-25T04:29:24.435Z,40.62
2019-03-25T04:30:24.436Z,40.27
2019-03-25T04:31:24.427Z,40.23
2019-03-25T04:32:24.420Z,40.57
2019-03-25T04:33:24.407Z,40.14
2019-03-25T04:34:24.399Z,40.10
2019-03-25T04:35:24.420Z,40.35
2019-03-25T04:36:24.398Z,40.20
2019-03-25T04:37:24.396Z,40.15
2019-03-25T04:38:24.399Z,40.54
2019-03-25T04:39:24.377Z,40.27
2019-03-25T04:40:24.369Z,40.46
2019-03-25T04:41:24.359Z,40.24
2019-03-25T04:42:24.338Z,40.60
2019-03-25T04:43:25.374Z,40.33
2019-03-25T04:44:24.373Z,40.20
2019-03-25T04:45:24.346Z,40.38
2019-03-25T04:46:24.352Z,40.74
2019-03-25T04:47:24.347Z,40.45
2019-03-25T04:48:24.326Z,40.60
2019-03-25T04:49:24.324Z,40.35
2019-03-25T04:50:24.322Z,40.54
2019-03-25T04:51:24.303Z,40.31
2019-03-25T04:52:24.297Z,40.40
2019-03-25T04:53:24.289Z,40.51
2019-03-25T04:54:24.291Z,40.63
2019-03-25T04:55:24.281Z,40.46
2019-03-25T04:56:24.277Z,40.65
2019-03-25T04:57:24.270Z,40.54
2019-03-25T04:58:24.255Z,40.61
2019-03-25T04:59:24.253Z,40.44
2019-03-25T05:00:24.256Z,40.43
2019-03-25T05:01:24.236Z,41.37
2019-03-25T05:02:24.231Z,40.29
2019-03-25T05:03:24.227Z,40.55
2019-03-25T05:04:24.210Z,40.58
2019-03-25T05:05:24.200Z,40.78
2019-03-25T05:06:25.208Z,40.56
2019-03-25T05:07:24.190Z,41.01
2019-03-25T05:08:24.188Z,40.41
2019-03-25T05:09:24.164Z,40.93
2019-03-25T05:10:24.171Z,40.87
2019-03-25T05:11:30.475Z,40.40
2019-03-25T05:12:26.146Z,40.34
2019-03-25T05:13:24.152Z,40.85
2019-03-25T05:14:24.137Z,40.56
2019-03-25T05:15:24.126Z,40.22
2019-03-25T05:16:24.114Z,40.19
2019-03-25T05:17:24.146Z,40.28
2019-03-25T05:18:24.147Z,40.48
2019-03-25T05:19:24.115Z,40.59
2019-03-25T05:20:24.143Z,41.14
2019-03-25T05:21:24.100Z,40.30
2019-03-25T05:22:24.102Z,40.87
2019-03-25T05:23:24.094Z,40.61
2019-03-25T05:24:24.086Z,40.27
2019-03-25T05:25:24.095Z,41.31
2019-03-25T05:26:24.086Z,40.36
2019-03-25T05:27:24.083Z,41.07
2019-03-25T05:28:24.089Z,40.60
2019-03-25T05:29:24.071Z,40.56
2019-03-25T05:30:24.066Z,41.06
2019-03-25T05:31:24.064Z,41.44
2019-03-25T05:32:24.060Z,40.66
2019-03-25T05:33:24.035Z,40.97
2019-03-25T05:34:24.036Z,40.51
2019-03-25T05:35:24.021Z,40.51
2019-03-25T05:36:24.018Z,41.13
2019-03-25T05:37:24.015Z,40.92
2019-03-25T05:38:23.997Z,40.96
2019-03-25T05:39:23.995Z,40.92
2019-03-25T05:40:23.990Z,40.43
2019-03-25T05:41:23.978Z,40.59
2019-03-25T05:42:23.981Z,41.05
2019-03-25T05:43:23.963Z,40.69
2019-03-25T05:44:23.959Z,40.79
2019-03-25T05:45:23.957Z,40.68
2019-03-25T05:46:23.949Z,40.89
2019-03-25T05:47:23.943Z,40.74
2019-03-25T05:48:23.933Z,41.29
2019-03-25T05:49:23.925Z,40.66
2019-03-25T05:50:23.921Z,40.85
2019-03-25T05:51:23.906Z,41.37
2019-03-25T05:52:23.918Z,40.81
2019-03-25T05:53:23.909Z,40.50
2019-03-25T05:54:23.897Z,40.69
2019-03-25T05:55:23.893Z,40.47
2019-03-25T05:56:23.875Z,40.59
2019-03-25T05:57:23.886Z,40.55
2019-03-25T05:58:23.869Z,40.57
2019-03-25T05:59:23.870Z,41.50
2019-03-25T06:00:23.854Z,40.63
2019-03-25T06:01:23.858Z,40.61
2019-03-25T06:02:23.848Z,40.74
2019-03-25T06:03:23.843Z,40.45
2019-03-25T06:04:23.823Z,40.49
2019-03-25T06:05:23.818Z,40.44
2019-03-25T06:06:23.817Z,41.45
2019-03-25T06:07:23.810Z,41.30
2019-03-25T06:08:23.807Z,40.81
2019-03-25T06:09:23.802Z,40.92
2019-03-25T06:10:23.794Z,40.51
2019-03-25T06:11:23.778Z,40.50
2019-03-25T06:12:23.793Z,41.07
2019-03-25T06:13:23.769Z,40.83
2019-03-25T06:14:23.764Z,40.53
2019-03-25T06:15:23.750Z,40.82
2019-03-25T06:16:23.739Z,40.70
2019-03-25T06:17:23.732Z,41.19
2019-03-25T06:18:23.727Z,40.79
2019-03-25T06:19:23.747Z,40.40
2019-03-25T06:20:23.731Z,41.66
2019-03-25T06:21:23.715Z,40.80
2019-03-25T06:22:23.716Z,41.53
2019-03-25T06:23:23.702Z,40.75
2019-03-25T06:24:23.709Z,41.22
2019-03-25T06:25:23.713Z,40.52
2019-03-25T06:26:23.691Z,40.77
2019-03-25T06:27:23.696Z,40.70
2019-03-25T06:28:23.693Z,40.61
2019-03-25T06:29:23.679Z,40.70
2019-03-25T06:30:23.674Z,40.77
2019-03-25T06:31:23.656Z,41.13
2019-03-25T06:32:23.654Z,40.68
2019-03-25T06:33:23.643Z,41.02
2019-03-25T06:34:23.634Z,41.06
2019-03-25T06:35:23.634Z,40.75
2019-03-25T06:36:23.620Z,41.16
2019-03-25T06:37:23.616Z,40.45
2019-03-25T06:38:23.636Z,40.59
2019-03-25T06:39:23.592Z,40.75
2019-03-25T06:40:23.592Z,41.05
2019-03-25T06:41:23.583Z,40.79
2019-03-25T06:42:23.580Z,41.78
2019-03-25T06:43:23.575Z,40.74
2019-03-25T06:44:23.562Z,41.11
2019-03-25T06:45:23.557Z,41.22
2019-03-25T06:46:23.556Z,40.69
2019-03-25T06:47:23.540Z,40.56
2019-03-25T06:48:23.541Z,40.82
2019-03-25T06:49:23.539Z,40.81
2019-03-25T06:50:23.517Z,40.63
2019-03-25T06:51:23.513Z,42.01
2019-03-25T06:52:23.512Z,40.87
2019-03-25T06:53:23.498Z,41.13
2019-03-25T06:54:23.488Z,41.34
2019-03-25T06:55:23.476Z,40.45
2019-03-25T06:56:23.473Z,40.86
2019-03-25T06:57:25.733Z,40.94
2019-03-25T06:58:24.451Z,40.79
2019-03-25T06:59:23.439Z,40.63
2019-03-25T07:00:23.433Z,40.98
2019-03-25T07:01:23.427Z,40.88
2019-03-25T07:02:23.421Z,40.91
2019-03-25T07:03:23.417Z,40.95
2019-03-25T07:04:23.412Z,40.66
2019-03-25T07:05:23.397Z,41.40
2019-03-25T07:06:23.412Z,40.86
2019-03-25T07:07:23.409Z,40.92
2019-03-25T07:08:23.395Z,40.74
2019-03-25T07:09:23.379Z,41.31
2019-03-25T07:10:23.371Z,40.64
2019-03-25T07:11:23.362Z,40.64
2019-03-25T07:12:23.357Z,41.14
2019-03-25T07:13:23.365Z,41.06
2019-03-25T07:14:23.340Z,41.46
2019-03-25T07:15:23.333Z,40.54
2019-03-25T07:16:23.325Z,40.64
2019-03-25T07:17:23.319Z,40.71
2019-03-25T07:18:23.327Z,41.21
2019-03-25T07:19:23.303Z,40.98
2019-03-25T07:20:23.294Z,40.69
2019-03-25T07:21:23.287Z,41.13
2019-03-25T07:22:23.289Z,40.97
2019-03-25T07:23:23.289Z,40.77
2019-03-25T07:24:23.280Z,40.82
2019-03-25T07:25:23.262Z,40.60
2019-03-25T07:26:23.256Z,40.53
2019-03-25T07:27:23.249Z,40.97
2019-03-25T07:28:23.241Z,40.55
2019-03-25T07:29:23.241Z,41.25
2019-03-25T07:30:23.227Z,41.69
2019-03-25T07:31:23.216Z,40.82
2019-03-25T07:32:23.212Z,40.62
2019-03-25T07:33:23.201Z,41.35
2019-03-25T07:34:23.209Z,40.82
2019-03-25T07:35:23.184Z,40.46
2019-03-25T07:36:23.172Z,40.89
2019-03-25T07:37:23.758Z,40.45
2019-03-25T07:38:24.171Z,40.84
2019-03-25T07:39:23.151Z,41.52
2019-03-25T07:40:23.153Z,40.91
2019-03-25T07:41:23.137Z,41.33
2019-03-25T07:42:23.126Z,40.48
2019-03-25T07:43:23.119Z,40.66
2019-03-25T07:44:23.110Z,40.60
2019-03-25T07:45:23.107Z,40.56
2019-03-25T07:46:23.092Z,40.71
2019-03-25T07:47:23.103Z,40.41
2019-03-25T07:48:23.086Z,40.47
2019-03-25T07:49:23.071Z,40.61
2019-03-25T07:50:23.086Z,41.09
2019-03-25T07:51:23.072Z,41.28
2019-03-25T07:52:23.065Z,40.70
2019-03-25T07:53:23.066Z,40.73
2019-03-25T07:54:23.058Z,40.57
2019-03-25T07:55:23.049Z,40.77
2019-03-25T07:56:23.055Z,40.72
2019-03-25T07:57:23.035Z,40.63
2019-03-25T07:58:23.040Z,40.72
2019-03-25T07:59:23.041Z,40.78
2019-03-25T08:00:23.003Z,41.08
2019-03-25T08:01:23.003Z,41.29
2019-03-25T08:02:22.992Z,40.91
2019-03-25T08:03:23.016Z,41.46
2019-03-25T08:04:22.995Z,40.78
2019-03-25T08:05:22.975Z,41.08
2019-03-25T08:06:22.975Z,40.79
2019-03-25T08:07:22.960Z,40.51
2019-03-25T08:08:22.941Z,41.07
2019-03-25T08:09:22.948Z,42.42
2019-03-25T08:10:22.950Z,48.11
2019-03-25T08:11:22.925Z,46.62
2019-03-25T08:12:22.920Z,40.45
2019-03-25T08:13:23.040Z,43.64
2019-03-25T08:14:22.928Z,46.54
2019-03-25T08:15:22.881Z,40.92
2019-03-25T08:16:22.871Z,40.65
2019-03-25T08:17:22.875Z,40.26
2019-03-25T08:18:22.862Z,41.42
2019-03-25T08:19:22.849Z,42.98
2019-03-25T08:20:22.841Z,40.81
2019-03-25T08:21:24.938Z,47.58
2019-03-25T08:22:22.914Z,44.38
2019-03-25T08:23:22.819Z,49.60
2019-03-25T08:24:22.808Z,44.57
2019-03-25T08:25:22.791Z,43.46
2019-03-25T08:26:23.792Z,55.36
2019-03-25T08:27:22.806Z,55.12
2019-03-25T08:28:22.786Z,53.91
2019-03-25T08:29:22.771Z,40.55
2019-03-25T08:30:22.760Z,40.27
2019-03-25T08:31:22.768Z,40.65
2019-03-25T08:32:22.776Z,40.78
2019-03-25T08:33:22.876Z,50.35
2019-03-25T08:34:22.786Z,52.54
2019-03-25T08:35:22.778Z,56.44
2019-03-25T08:36:22.787Z,53.09
2019-03-25T08:37:22.769Z,58.46
2019-03-25T08:38:22.805Z,47.35
2019-03-25T08:39:22.760Z,43.81
2019-03-25T08:40:22.751Z,46.40
2019-03-25T08:41:22.738Z,55.36
2019-03-25T08:42:22.748Z,40.27
2019-03-25T08:43:22.804Z,40.88
2019-03-25T08:44:23.185Z,46.71
2019-03-25T08:45:22.729Z,57.49
2019-03-25T08:46:22.720Z,58.23
2019-03-25T08:47:22.706Z,58.10
2019-03-25T08:48:22.709Z,57.95
2019-03-25T08:49:22.702Z,55.13
2019-03-25T08:50:22.689Z,41.07
2019-03-25T08:51:22.688Z,41.00
2019-03-25T08:52:22.676Z,41.31
2019-03-25T08:53:22.671Z,41.35
2019-03-25T08:54:22.744Z,52.42
2019-03-25T08:55:22.656Z,55.65
2019-03-25T08:56:22.664Z,55.59
2019-03-25T08:57:22.657Z,57.28
2019-03-25T08:58:22.698Z,56.30
2019-03-25T08:59:22.638Z,56.84
2019-03-25T09:00:22.637Z,55.20
2019-03-25T09:01:22.661Z,56.69
2019-03-25T09:02:22.619Z,42.96
2019-03-25T09:03:22.609Z,40.02
2019-03-25T09:04:22.601Z,39.92
2019-03-25T09:05:22.605Z,40.97
2019-03-25T09:06:22.583Z,40.52
2019-03-25T09:07:22.577Z,40.15
2019-03-25T09:08:22.568Z,40.34
2019-03-25T09:09:22.564Z,40.30
2019-03-25T09:10:22.560Z,40.08
2019-03-25T09:11:22.548Z,39.81
2019-03-25T09:12:22.540Z,40.11
2019-03-25T09:13:22.530Z,39.96
2019-03-25T09:14:22.519Z,41.21
2019-03-25T09:15:22.532Z,39.33
2019-03-25T09:16:22.520Z,39.98
2019-03-25T09:17:22.505Z,39.19
2019-03-25T09:18:22.517Z,39.90
2019-03-25T09:19:22.504Z,53.43
2019-03-25T09:20:22.498Z,54.55
2019-03-25T09:21:22.550Z,52.22
2019-03-25T09:22:22.478Z,39.44
2019-03-25T09:23:22.470Z,40.26
2019-03-25T09:24:22.526Z,47.52
2019-03-25T09:25:22.456Z,52.21
2019-03-25T09:26:22.543Z,49.63
2019-03-25T09:27:22.455Z,40.79
2019-03-25T09:28:24.523Z,39.53
2019-03-25T09:29:23.439Z,43.67
2019-03-25T09:30:22.431Z,53.54
2019-03-25T09:31:22.432Z,53.52
2019-03-25T09:32:22.418Z,55.56
2019-03-25T09:33:22.434Z,46.73
2019-03-25T09:34:22.398Z,39.69
2019-03-25T09:35:22.415Z,40.66
2019-03-25T09:36:22.405Z,51.78
2019-03-25T09:37:22.491Z,50.21
2019-03-25T09:38:22.388Z,48.72
2019-03-25T09:39:22.376Z,51.43
2019-03-25T09:40:22.370Z,52.02
2019-03-25T09:41:22.359Z,47.56
2019-03-25T09:42:22.362Z,40.34
2019-03-25T09:43:22.344Z,49.63
2019-03-25T09:44:22.338Z,49.78
2019-03-25T09:45:22.343Z,40.51
2019-03-25T09:46:22.338Z,48.31
2019-03-25T09:47:22.331Z,40.80
2019-03-25T09:48:22.326Z,42.45
2019-03-25T09:49:22.310Z,51.23
2019-03-25T09:50:22.347Z,53.13
2019-03-25T09:51:22.331Z,42.74
2019-03-25T09:52:22.306Z,53.61
2019-03-25T09:53:22.310Z,43.76
2019-03-25T09:54:22.292Z,40.12
2019-03-25T09:55:22.293Z,44.35
2019-03-25T09:56:22.278Z,52.94
2019-03-25T09:57:22.269Z,40.47
2019-03-25T09:58:22.260Z,40.73
2019-03-25T09:59:22.271Z,40.47
2019-03-25T10:00:22.262Z,40.51
2019-03-25T10:01:22.246Z,41.38
2019-03-25T10:02:22.238Z,41.26
2019-03-25T10:03:22.235Z,40.69
2019-03-25T10:04:22.224Z,41.33
2019-03-25T10:05:22.213Z,40.51
2019-03-25T10:06:22.207Z,40.45
2019-03-25T10:07:22.193Z,40.66
2019-03-25T10:08:22.185Z,40.59
2019-03-25T10:09:22.199Z,41.03
2019-03-25T10:10:22.168Z,41.08
2019-03-25T10:11:22.165Z,40.92
2019-03-25T10:12:22.156Z,50.00
2019-03-25T10:13:22.133Z,41.72
2019-03-25T10:14:23.143Z,47.96
2019-03-25T10:15:22.128Z,44.89
2019-03-25T10:16:22.118Z,41.15
2019-03-25T10:17:22.111Z,40.97
2019-03-25T10:18:22.099Z,41.48
2019-03-25T10:19:22.106Z,42.33
2019-03-25T10:20:22.108Z,44.39
2019-03-25T10:21:22.082Z,41.09
2019-03-25T10:22:22.076Z,42.73
2019-03-25T10:23:22.065Z,41.47
2019-03-25T10:24:27.651Z,42.55
2019-03-25T10:25:24.610Z,41.11
2019-03-25T10:26:22.042Z,41.22
2019-03-25T10:27:22.045Z,41.09
2019-03-25T10:28:22.046Z,41.18
2019-03-25T10:29:22.034Z,41.34
2019-03-25T10:30:22.075Z,41.27
2019-03-25T10:31:22.040Z,40.96
2019-03-25T10:32:22.032Z,40.90
2019-03-25T10:33:22.017Z,41.14
2019-03-25T10:34:22.034Z,42.54
2019-03-25T10:35:22.021Z,41.40
2019-03-25T10:36:22.027Z,41.20
2019-03-25T10:37:22.020Z,41.14
2019-03-25T10:38:22.013Z,41.13
2019-03-25T10:39:22.000Z,41.50
2019-03-25T10:40:21.994Z,40.84
2019-03-25T10:41:22.003Z,41.38
2019-03-25T10:42:21.976Z,41.20
2019-03-25T10:43:21.966Z,40.91
2019-03-25T10:44:21.957Z,41.19
2019-03-25T10:45:21.954Z,41.17
2019-03-25T10:46:21.969Z,41.38
2019-03-25T10:47:21.962Z,41.61
2019-03-25T10:48:21.951Z,40.68
2019-03-25T10:49:21.946Z,40.86
2019-03-25T10:50:21.935Z,40.67
2019-03-25T10:51:21.926Z,41.34
2019-03-25T10:52:22.037Z,41.00
2019-03-25T10:53:21.908Z,41.79
2019-03-25T10:54:21.952Z,41.65
2019-03-25T10:55:21.894Z,40.71
2019-03-25T10:56:21.918Z,40.77
2019-03-25T10:57:21.962Z,41.02
2019-03-25T10:58:21.870Z,41.05
2019-03-25T10:59:21.865Z,40.69
2019-03-25T11:00:21.856Z,41.38
2019-03-25T11:01:21.849Z,40.74
2019-03-25T11:02:21.839Z,40.72
2019-03-25T11:03:21.841Z,40.90
2019-03-25T11:04:21.837Z,41.22
2019-03-25T11:05:21.833Z,40.64
2019-03-25T11:06:21.844Z,40.53
2019-03-25T11:07:21.979Z,40.23
2019-03-25T11:08:21.835Z,40.71
2019-03-25T11:09:21.816Z,40.08
2019-03-25T11:10:21.812Z,40.39
2019-03-25T11:11:21.803Z,40.46
2019-03-25T11:12:21.803Z,40.83
2019-03-25T11:13:21.990Z,40.59
2019-03-25T11:14:21.783Z,40.47
2019-03-25T11:15:21.774Z,40.68
2019-03-25T11:16:21.767Z,40.86
2019-03-25T11:17:21.755Z,41.22
2019-03-25T11:18:21.751Z,40.79
2019-03-25T11:19:21.747Z,40.93
2019-03-25T11:20:21.729Z,40.86
2019-03-25T11:21:21.723Z,41.13
2019-03-25T11:22:21.716Z,42.47
2019-03-25T11:23:21.711Z,41.05
2019-03-25T11:24:21.717Z,41.24
2019-03-25T11:25:21.695Z,41.71
2019-03-25T11:26:21.962Z,40.77
2019-03-25T11:27:21.678Z,41.01
2019-03-25T11:28:21.673Z,40.86
2019-03-25T11:29:21.673Z,40.94
2019-03-25T11:30:21.655Z,41.17
2019-03-25T11:31:21.649Z,41.48
2019-03-25T11:32:21.641Z,41.95
2019-03-25T11:33:21.637Z,41.79
2019-03-25T11:34:21.625Z,40.91
2019-03-25T11:35:21.624Z,41.38
2019-03-25T11:36:21.624Z,42.74
2019-03-25T11:37:21.610Z,42.16
2019-03-25T11:38:21.603Z,41.26
2019-03-25T11:39:21.603Z,41.30
2019-03-25T11:40:21.612Z,40.78
2019-03-25T11:41:21.593Z,41.04
2019-03-25T11:42:21.583Z,41.33
2019-03-25T11:43:21.584Z,41.38
2019-03-25T11:44:21.569Z,41.02
2019-03-25T11:45:21.623Z,41.14
2019-03-25T11:46:21.574Z,41.07
2019-03-25T11:47:21.567Z,41.07
2019-03-25T11:48:21.559Z,41.29
2019-03-25T11:49:21.550Z,40.91
2019-03-25T11:50:21.544Z,41.02
2019-03-25T11:51:21.544Z,40.62
2019-03-25T11:52:21.529Z,40.78
2019-03-25T11:53:21.522Z,40.78
2019-03-25T11:54:21.516Z,41.09
2019-03-25T11:55:21.501Z,41.69
2019-03-25T11:56:21.705Z,40.71
2019-03-25T11:57:21.494Z,40.67
2019-03-25T11:58:21.479Z,40.62
2019-03-25T11:59:21.526Z,41.18
2019-03-25T12:00:23.298Z,40.93
2019-03-25T12:01:21.459Z,40.91
2019-03-25T12:02:21.448Z,40.59
2019-03-25T12:03:21.440Z,40.79
2019-03-25T12:04:21.433Z,40.85
2019-03-25T12:05:21.436Z,41.15
2019-03-25T12:06:21.419Z,41.67
2019-03-25T12:07:21.411Z,40.71
2019-03-25T12:08:21.412Z,41.25
2019-03-25T12:09:21.402Z,41.38
2019-03-25T12:10:21.391Z,40.86
2019-03-25T12:11:23.614Z,41.17
2019-03-25T12:12:21.419Z,40.67
2019-03-25T12:13:21.367Z,40.77
2019-03-25T12:14:21.373Z,40.31
2019-03-25T12:15:21.362Z,40.76
2019-03-25T12:16:21.355Z,40.61
2019-03-25T12:17:21.530Z,40.58
2019-03-25T12:18:21.346Z,40.57
2019-03-25T12:19:21.332Z,40.55
2019-03-25T12:20:21.327Z,40.62
2019-03-25T12:21:21.338Z,40.57
2019-03-25T12:22:21.337Z,41.58
2019-03-25T12:23:26.311Z,40.87
2019-03-25T12:24:23.317Z,41.21
2019-03-25T12:25:21.310Z,41.13
2019-03-25T12:26:21.299Z,40.69
2019-03-25T12:27:21.385Z,40.83
2019-03-25T12:28:21.299Z,41.47
2019-03-25T12:29:29.633Z,41.02
2019-03-25T12:30:23.270Z,40.76
2019-03-25T12:31:21.258Z,41.01
2019-03-25T12:32:21.251Z,40.90
2019-03-25T12:33:21.280Z,40.48
2019-03-25T12:34:21.310Z,40.70
2019-03-25T12:35:21.230Z,40.57
2019-03-25T12:36:21.225Z,41.39
2019-03-25T12:37:21.213Z,41.06
2019-03-25T12:38:21.207Z,40.66
2019-03-25T12:39:21.207Z,40.63
2019-03-25T12:40:21.195Z,40.97
2019-03-25T12:41:21.190Z,40.58
2019-03-25T12:42:21.179Z,40.59
2019-03-25T12:43:21.167Z,40.62
2019-03-25T12:44:21.339Z,40.64
2019-03-25T12:45:21.149Z,41.01
2019-03-25T12:46:21.164Z,41.00
2019-03-25T12:47:21.144Z,41.36
2019-03-25T12:48:21.147Z,40.95
2019-03-25T12:49:21.178Z,41.90
2019-03-25T12:50:21.112Z,40.63
2019-03-25T12:51:21.108Z,40.59
2019-03-25T12:52:21.099Z,40.62